Time;durP1;ratioP1;P1;durP2;ratioP2;P2;SDS_P1;SDS_P2;PMS_P1;PMS_P2;Temp;Humidity;BMP_temperature;BMP_pressure;BME280_temperature;BME280_humidity;BME280_pressure;Samples;Min_cycle;Max_cycle;Signal;HPM_P1;HPM_P2
2021/10/25 00:01:59;;;;;;;6.35;3.08;;;4.40;98.00;;;;;;6276645;22;20010;-77
2021/10/25 00:04:25;;;;;;;5.30;3.00;;;4.40;98.00;;;;;;6278992;22;20000;-77
2021/10/25 00:06:53;;;;;;;6.15;3.15;;;4.30;98.00;;;;;;6280276;22;20253;-76
2021/10/25 00:09:19;;;;;;;6.68;3.55;;;4.30;98.00;;;;;;6278273;22;20061;-77
2021/10/25 00:11:45;;;;;;;8.02;3.22;;;4.20;98.00;;;;;;6277437;22;20019;-77
2021/10/25 00:14:11;;;;;;;6.32;3.53;;;4.20;98.00;;;;;;6278618;22;20421;-77
2021/10/25 00:16:38;;;;;;;6.13;3.25;;;4.30;98.00;;;;;;6249845;22;20012;-77
2021/10/25 00:19:04;;;;;;;9.73;3.95;;;4.40;98.00;;;;;;6276052;22;20022;-76
2021/10/25 00:21:31;;;;;;;6.30;3.58;;;4.50;98.00;;;;;;6277696;22;20028;-77
2021/10/25 00:23:57;;;;;;;7.03;3.33;;;4.60;98.00;;;;;;6250145;22;20332;-77
2021/10/25 00:26:22;;;;;;;7.18;3.72;;;4.60;98.00;;;;;;6277257;22;20027;-77
2021/10/25 00:28:48;;;;;;;5.93;3.15;;;4.70;98.00;;;;;;6250770;22;20367;-78
2021/10/25 00:31:14;;;;;;;5.68;2.78;;;4.80;98.00;;;;;;6277718;22;20053;-77
2021/10/25 00:33:40;;;;;;;5.35;2.55;;;5.00;98.00;;;;;;6277711;22;20003;-77
2021/10/25 00:36:06;;;;;;;8.25;2.42;;;5.10;97.30;;;;;;6277795;22;20531;-77
2021/10/25 00:38:32;;;;;;;4.80;2.10;;;5.00;97.50;;;;;;6278400;22;20126;-78
2021/10/25 00:40:58;;;;;;;5.45;2.20;;;5.10;97.40;;;;;;6276944;22;20008;-77
2021/10/25 00:43:23;;;;;;;7.65;2.55;;;5.10;97.50;;;;;;6248717;22;20027;-77
2021/10/25 00:45:50;;;;;;;5.88;2.35;;;5.20;97.40;;;;;;6251232;22;20007;-77
2021/10/25 00:48:16;;;;;;;6.05;2.60;;;5.20;97.50;;;;;;6277357;22;19999;-77
2021/10/25 00:50:42;;;;;;;5.47;2.40;;;5.40;96.70;;;;;;6278086;22;20049;-77
2021/10/25 00:53:09;;;;;;;5.25;2.20;;;5.40;96.20;;;;;;6276868;22;20388;-77
2021/10/25 00:55:39;;;;;;;4.32;2.47;;;5.50;95.70;;;;;;6277491;22;20028;-77
2021/10/25 00:58:06;;;;;;;3.45;2.05;;;5.60;95.70;;;;;;6248348;22;20008;-77
2021/10/25 01:00:33;;;;;;;6.07;2.17;;;5.60;95.70;;;;;;6276624;22;20030;-77
2021/10/25 01:03:00;;;;;;;5.15;2.38;;;5.60;95.80;;;;;;6250035;22;20042;-77
2021/10/25 01:05:27;;;;;;;5.07;2.80;;;5.40;96.50;;;;;;6277561;22;19997;-78
2021/10/25 01:07:54;;;;;;;6.25;2.47;;;5.40;96.50;;;;;;6279349;22;20238;-77
2021/10/25 01:10:20;;;;;;;3.97;1.98;;;5.30;96.40;;;;;;6279387;22;20018;-77
2021/10/25 01:12:48;;;;;;;4.82;2.45;;;5.30;96.60;;;;;;6276155;22;20261;-77
2021/10/25 01:15:14;;;;;;;5.43;2.55;;;5.30;97.00;;;;;;6250011;22;20042;-77
2021/10/25 01:17:39;;;;;;;4.35;1.92;;;5.10;97.40;;;;;;6276250;22;20016;-77
2021/10/25 01:20:06;;;;;;;3.85;2.20;;;5.10;97.60;;;;;;6276865;22;20011;-78
2021/10/25 01:22:32;;;;;;;4.93;2.50;;;5.00;97.70;;;;;;6276667;22;19996;-76
2021/10/25 01:24:57;;;;;;;4.55;2.30;;;4.70;98.00;;;;;;6276253;22;20238;-77
2021/10/25 01:27:23;;;;;;;4.80;2.30;;;4.50;98.00;;;;;;6276469;22;20003;-77
2021/10/25 01:29:50;;;;;;;4.13;1.70;;;4.30;98.00;;;;;;6276165;22;20079;-77
2021/10/25 01:32:18;;;;;;;7.40;2.70;;;4.30;98.00;;;;;;6250362;22;20012;-77
2021/10/25 01:34:44;;;;;;;3.60;2.00;;;4.20;98.00;;;;;;6276793;22;20010;-78
2021/10/25 01:37:10;;;;;;;6.63;3.72;;;4.00;98.00;;;;;;6250372;22;20008;-77
2021/10/25 01:39:37;;;;;;;8.75;3.25;;;3.80;98.00;;;;;;6250500;22;20008;-77
2021/10/25 01:42:03;;;;;;;9.23;4.05;;;3.60;98.00;;;;;;6275764;22;20003;-77
2021/10/25 01:44:29;;;;;;;8.15;3.15;;;3.40;98.00;;;;;;6277794;22;20003;-78
2021/10/25 01:46:55;;;;;;;7.38;3.53;;;3.30;98.00;;;;;;6277770;22;20003;-77
2021/10/25 01:49:21;;;;;;;8.60;3.47;;;3.30;98.00;;;;;;6277001;22;20242;-76
2021/10/25 01:51:46;;;;;;;8.75;3.40;;;3.30;98.00;;;;;;6250599;22;20050;-76
2021/10/25 01:54:15;;;;;;;6.70;3.50;;;3.50;98.00;;;;;;6277976;22;20015;-76
2021/10/25 01:56:42;;;;;;;5.55;2.53;;;3.80;98.00;;;;;;6276309;22;20081;-76
2021/10/25 01:59:08;;;;;;;5.80;2.65;;;4.00;98.00;;;;;;6276099;22;20007;-76
2021/10/25 02:01:34;;;;;;;6.50;2.45;;;4.10;98.00;;;;;;6277029;22;20369;-78
2021/10/25 02:04:05;;;;;;;4.85;2.30;;;3.90;98.00;;;;;;6277061;22;19995;-78
2021/10/25 02:06:32;;;;;;;4.25;2.17;;;3.70;98.00;;;;;;6277303;22;20010;-78
2021/10/25 02:08:57;;;;;;;3.47;1.85;;;3.70;98.00;;;;;;6250301;22;20101;-77
2021/10/25 02:11:23;;;;;;;4.05;1.90;;;3.60;98.00;;;;;;6278078;22;20000;-78
2021/10/25 02:13:49;;;;;;;5.60;2.00;;;3.60;98.00;;;;;;6277678;22;20034;-78
2021/10/25 02:16:16;;;;;;;3.50;1.90;;;3.50;98.00;;;;;;6248592;22;20117;-77
2021/10/25 02:18:42;;;;;;;3.47;1.70;;;3.50;98.00;;;;;;6276119;22;20396;-76
2021/10/25 02:21:09;;;;;;;4.50;1.90;;;3.50;98.00;;;;;;6276744;22;20018;-77
2021/10/25 02:23:35;;;;;;;3.65;1.77;;;3.40;98.00;;;;;;6250131;22;20000;-77
2021/10/25 02:26:01;;;;;;;3.60;1.80;;;3.40;98.00;;;;;;6276540;22;20010;-76
2021/10/25 02:28:27;;;;;;;4.03;1.80;;;3.40;98.00;;;;;;6275360;22;19995;-77
2021/10/25 02:30:53;;;;;;;3.83;1.92;;;3.50;98.00;;;;;;6275497;22;20013;-78
2021/10/25 02:33:19;;;;;;;3.08;1.70;;;3.50;98.00;;;;;;6277265;22;20078;-77
2021/10/25 02:35:46;;;;;;;3.50;1.80;;;3.50;98.00;;;;;;6275786;22;20324;-77
2021/10/25 02:38:11;;;;;;;3.88;1.88;;;3.40;98.00;;;;;;6250362;22;20061;-77
2021/10/25 02:40:38;;;;;;;3.40;1.70;;;3.60;98.00;;;;;;6249040;22;20099;-77
2021/10/25 02:43:04;;;;;;;4.03;1.55;;;3.80;98.00;;;;;;6274570;22;20431;-77
2021/10/25 02:45:30;;;;;;;3.55;1.50;;;4.10;98.00;;;;;;6249655;22;19995;-77
2021/10/25 02:47:57;;;;;;;2.60;1.50;;;4.20;98.00;;;;;;6276668;22;20011;-77
2021/10/25 02:50:22;;;;;;;3.10;1.70;;;4.20;98.00;;;;;;6276555;22;20078;-77
2021/10/25 02:52:48;;;;;;;3.30;1.77;;;4.20;98.00;;;;;;6248897;22;20027;-77
2021/10/25 02:55:14;;;;;;;3.33;1.70;;;4.20;98.00;;;;;;6275709;22;20027;-78
2021/10/25 02:57:42;;;;;;;3.20;1.60;;;4.20;98.00;;;;;;6276132;22;20011;-78
2021/10/25 03:00:10;;;;;;;4.63;1.80;;;4.30;98.00;;;;;;6249092;22;20027;-77
2021/10/25 03:02:36;;;;;;;3.88;1.67;;;4.40;97.60;;;;;;6276728;22;20004;-77
2021/10/25 03:05:03;;;;;;;3.42;1.73;;;4.20;97.60;;;;;;6276090;22;20121;-77
2021/10/25 03:07:29;;;;;;;3.72;1.67;;;4.00;98.00;;;;;;6275716;22;20118;-77
2021/10/25 03:09:54;;;;;;;4.55;1.63;;;3.90;98.00;;;;;;6276162;22;20034;-78
2021/10/25 03:12:20;;;;;;;3.42;1.55;;;4.00;98.00;;;;;;6276054;22;20030;-77
2021/10/25 03:14:46;;;;;;;4.60;1.92;;;4.10;98.00;;;;;;6278185;22;20003;-78
2021/10/25 03:17:11;;;;;;;3.42;1.42;;;4.30;97.70;;;;;;6276043;22;20027;-76
2021/10/25 03:19:37;;;;;;;2.80;1.35;;;4.50;97.20;;;;;;6276256;22;20047;-77
2021/10/25 03:22:06;;;;;;;2.35;1.30;;;4.60;96.20;;;;;;6249523;22;20118;-77
2021/10/25 03:24:34;;;;;;;3.08;1.38;;;4.80;95.30;;;;;;6277396;22;20000;-78
2021/10/25 03:27:00;;;;;;;4.13;1.92;;;4.90;94.90;;;;;;6249225;22;20031;-76
2021/10/25 03:29:25;;;;;;;3.33;1.40;;;5.00;94.40;;;;;;6275920;22;20481;-75
2021/10/25 03:31:51;;;;;;;2.83;1.50;;;5.20;93.80;;;;;;6275336;22;20085;-76
2021/10/25 03:34:18;;;;;;;3.28;1.60;;;5.10;93.80;;;;;;6249232;22;20428;-76
2021/10/25 03:36:46;;;;;;;3.08;1.40;;;5.10;93.40;;;;;;6276087;22;20623;-77
2021/10/25 03:39:13;;;;;;;3.17;1.40;;;5.20;93.30;;;;;;6275752;22;20000;-76
2021/10/25 03:41:43;;;;;;;3.22;1.52;;;5.20;93.30;;;;;;6247364;22;20392;-76
2021/10/25 03:44:24;;;;;;;5.97;1.33;;;5.20;92.80;;;;;;6275441;22;20007;-77
2021/10/25 03:52:18;;;;;;;2.78;1.20;;;4.90;94.80;;;;;;6286250;22;20011;-77
2021/10/25 03:55:00;;;;;;;5.10;1.98;;;4.70;95.40;;;;;;6277137;22;20303;-76
2021/10/25 04:30:17;;;;;;;3.88;1.70;;;5.40;92.40;;;;;;6285837;22;20022;-77
2021/10/25 04:32:42;;;;;;;4.25;1.70;;;5.50;92.00;;;;;;6247628;22;20039;-75
2021/10/25 04:35:10;;;;;;;3.95;1.52;;;5.40;92.40;;;;;;6247673;22;20003;-77
2021/10/25 04:37:36;;;;;;;2.85;1.60;;;5.30;92.90;;;;;;6275861;22;20031;-76
2021/10/25 04:40:04;;;;;;;2.78;1.60;;;5.20;94.20;;;;;;6275968;22;20027;-76
2021/10/25 04:42:31;;;;;;;3.60;1.48;;;5.10;95.40;;;;;;6277051;22;20003;-76
2021/10/25 04:44:56;;;;;;;5.15;1.63;;;5.10;95.30;;;;;;6277492;22;20035;-75
2021/10/25 04:47:23;;;;;;;3.90;1.80;;;5.00;96.10;;;;;;6278051;22;20269;-76
2021/10/25 04:49:48;;;;;;;5.00;2.55;;;4.90;96.20;;;;;;6277205;22;20011;-76
2021/10/25 04:52:14;;;;;;;4.38;2.05;;;4.80;97.10;;;;;;6251466;22;20008;-75
2021/10/25 04:54:40;;;;;;;3.90;2.20;;;4.70;97.40;;;;;;6275363;22;19999;-76
2021/10/25 04:57:06;;;;;;;4.22;2.33;;;4.70;97.50;;;;;;6250236;22;20007;-77
2021/10/25 04:59:32;;;;;;;9.63;5.93;;;4.60;97.50;;;;;;6275554;22;20669;-77
2021/10/25 05:01:58;;;;;;;8.80;5.93;;;4.50;97.60;;;;;;6275439;22;20003;-77
2021/10/25 05:04:24;;;;;;;8.57;2.20;;;4.50;97.30;;;;;;6273923;22;20267;-77
2021/10/25 05:06:52;;;;;;;4.30;1.83;;;4.50;97.30;;;;;;6247495;22;20000;-77
2021/10/25 05:09:18;;;;;;;3.22;1.80;;;4.50;97.40;;;;;;6249763;22;20070;-78
2021/10/25 05:11:43;;;;;;;3.88;2.03;;;4.40;96.80;;;;;;6276269;22;20071;-77
2021/10/25 05:14:09;;;;;;;4.40;1.92;;;4.30;96.60;;;;;;6277676;22;20008;-77
2021/10/25 05:16:35;;;;;;;5.20;1.65;;;4.30;96.40;;;;;;6252949;22;20365;-77
2021/10/25 05:19:00;;;;;;;4.47;1.80;;;4.30;96.50;;;;;;6279249;22;20065;-77
2021/10/25 05:21:27;;;;;;;5.13;2.90;;;4.20;97.10;;;;;;6280124;22;20043;-77
2021/10/25 05:23:53;;;;;;;7.43;3.00;;;4.20;97.70;;;;;;6279863;22;20000;-78
2021/10/25 05:26:19;;;;;;;5.60;3.08;;;4.20;97.90;;;;;;6278149;22;19996;-77
2021/10/25 05:28:45;;;;;;;4.70;2.05;;;4.20;98.00;;;;;;6279639;22;20044;-76
2021/10/25 05:31:12;;;;;;;6.28;2.40;;;4.20;98.00;;;;;;6252399;22;20007;-76
2021/10/25 05:33:41;;;;;;;5.97;3.75;;;4.10;98.00;;;;;;6279105;22;20034;-77
2021/10/25 05:36:08;;;;;;;6.80;3.63;;;4.10;98.00;;;;;;6253880;22;20258;-78
2021/10/25 05:38:35;;;;;;;6.15;3.33;;;4.10;98.00;;;;;;6280147;22;20316;-78
2021/10/25 05:41:01;;;;;;;5.38;3.17;;;4.10;98.00;;;;;;6280153;22;20083;-77
2021/10/25 05:43:27;;;;;;;6.45;3.28;;;4.10;98.00;;;;;;6251560;22;20069;-77
2021/10/25 05:45:52;;;;;;;8.35;5.05;;;4.10;98.00;;;;;;6279722;22;20262;-78
2021/10/25 05:48:18;;;;;;;7.68;4.22;;;4.00;98.00;;;;;;6280263;22;20357;-80
2021/10/25 05:50:45;;;;;;;5.55;3.15;;;3.90;98.00;;;;;;6280016;22;20004;-77
2021/10/25 05:53:10;;;;;;;7.38;4.38;;;3.80;98.00;;;;;;6253207;22;20031;-77
2021/10/25 05:55:38;;;;;;;8.35;5.05;;;3.70;98.00;;;;;;6280374;22;20238;-77
2021/10/25 05:58:05;;;;;;;9.70;5.60;;;3.60;98.00;;;;;;6278735;22;20053;-77
2021/10/25 06:00:37;;;;;;;11.13;5.20;;;3.50;98.00;;;;;;6279839;22;20265;-77
2021/10/25 06:03:03;;;;;;;9.95;4.55;;;3.40;98.00;;;;;;6279989;22;20369;-77
2021/10/25 06:05:30;;;;;;;8.23;4.80;;;3.30;98.00;;;;;;6280267;22;19996;-78
2021/10/25 06:07:57;;;;;;;8.68;4.25;;;3.30;98.00;;;;;;6280062;22;20074;-76
2021/10/25 06:10:28;;;;;;;11.10;4.75;;;3.10;98.00;;;;;;6253336;22;20008;-77
2021/10/25 06:12:56;;;;;;;7.88;4.80;;;3.10;98.00;;;;;;6278615;22;20085;-78
2021/10/25 06:15:24;;;;;;;9.18;4.65;;;3.00;98.00;;;;;;6253669;22;20014;-78
2021/10/25 06:17:56;;;;;;;9.30;3.58;;;3.00;98.00;;;;;;6253130;22;20259;-77
2021/10/25 06:20:27;;;;;;;5.57;2.88;;;3.00;98.00;;;;;;6279772;22;20003;-77
2021/10/25 06:22:55;;;;;;;5.10;2.55;;;3.00;98.00;;;;;;6280107;22;19999;-78
2021/10/25 06:25:22;;;;;;;5.22;1.92;;;3.10;98.00;;;;;;6279980;22;20003;-80
2021/10/25 06:27:48;;;;;;;4.85;2.28;;;3.10;98.00;;;;;;6278559;22;20006;-78
2021/10/25 06:30:15;;;;;;;4.30;2.33;;;3.10;98.00;;;;;;6252567;22;20381;-77
2021/10/25 06:32:42;;;;;;;5.47;2.13;;;3.20;98.00;;;;;;6252163;22;20301;-76
2021/10/25 06:35:10;;;;;;;4.75;2.30;;;3.20;98.00;;;;;;6279310;22;20004;-78
2021/10/25 06:40:21;;;;;;;7.30;2.10;;;3.50;98.00;;;;;;6280039;22;20042;-77
2021/10/25 06:42:48;;;;;;;4.75;2.00;;;3.70;98.00;;;;;;6278104;22;20048;-77
2021/10/25 06:45:17;;;;;;;4.38;2.00;;;3.80;98.00;;;;;;6252572;22;20000;-78
2021/10/25 06:47:44;;;;;;;6.10;3.22;;;3.90;98.00;;;;;;6280092;22;20074;-77
2021/10/25 06:50:10;;;;;;;7.97;3.00;;;4.10;98.00;;;;;;6252841;22;20023;-77
2021/10/25 06:52:36;;;;;;;7.80;4.70;;;4.20;98.00;;;;;;6280095;22;20287;-77
2021/10/25 06:55:04;;;;;;;15.55;6.43;;;4.20;98.00;;;;;;6280126;22;20011;-77
2021/10/25 06:57:29;;;;;;;11.32;6.05;;;4.10;98.00;;;;;;6278361;22;20057;-78
2021/10/25 06:59:55;;;;;;;8.48;5.07;;;4.00;98.00;;;;;;6279601;22;20284;-78
2021/10/25 07:02:21;;;;;;;8.77;3.85;;;4.00;98.00;;;;;;6252624;22;20027;-77
2021/10/25 07:04:49;;;;;;;5.32;2.50;;;4.00;98.00;;;;;;6279444;22;20373;-77
2021/10/25 07:07:18;;;;;;;6.97;4.13;;;4.20;98.00;;;;;;6279762;22;20003;-76
2021/10/25 07:09:43;;;;;;;6.95;3.13;;;4.50;98.00;;;;;;6253057;22;20438;-78
2021/10/25 07:12:09;;;;;;;4.35;2.00;;;4.80;98.00;;;;;;6251008;22;20089;-78
2021/10/25 07:14:38;;;;;;;3.92;2.05;;;5.20;97.60;;;;;;6279741;22;20268;-76
2021/10/25 08:06:18;;;;;;;;;;;11.90;79.60;;;;;;6290558;22;20031;-78
2021/10/25 08:11:12;;;;;;;18.83;7.35;;;12.90;77.40;;;;;;6288326;22;20355;-77
2021/10/25 08:13:41;;;;;;;14.40;5.80;;;12.90;78.10;;;;;;6279408;22;20049;-77
2021/10/25 08:21:19;;;;;;;11.80;4.53;;;13.40;77.30;;;;;;6291669;22;20022;-77
2021/10/25 08:23:46;;;;;;;7.78;2.65;;;13.70;76.70;;;;;;6281430;22;20000;-77
2021/10/25 08:26:12;;;;;;;10.60;4.45;;;14.30;76.00;;;;;;6279962;22;19996;-78
2021/10/25 08:28:39;;;;;;;13.80;5.45;;;15.00;73.50;;;;;;6281375;22;20121;-78
2021/10/25 08:31:06;;;;;;;12.45;4.55;;;15.30;72.40;;;;;;6280993;22;20001;-78
2021/10/25 08:33:47;;;;;;;12.38;5.15;;;15.40;72.50;;;;;;6281231;22;20000;-77
2021/10/25 08:36:22;;;;;;;15.20;7.05;;;14.90;72.70;;;;;;6281298;22;20053;-77
2021/10/25 08:41:34;;;;;;;12.98;6.03;;;12.90;78.20;;;;;;6279812;22;20011;-78
2021/10/25 08:44:05;;;;;;;11.40;5.20;;;12.30;80.00;;;;;;6281125;22;20352;-77
2021/10/25 08:46:31;;;;;;;9.98;5.40;;;12.20;79.70;;;;;;6281182;22;20000;-77
2021/10/25 08:48:57;;;;;;;14.10;6.78;;;12.00;80.00;;;;;;6281209;22;20043;-78
2021/10/25 08:51:23;;;;;;;10.05;5.32;;;11.70;81.00;;;;;;6281106;22;20000;-78
2021/10/25 08:53:50;;;;;;;9.02;5.05;;;11.60;80.60;;;;;;6281164;22;20022;-78
2021/10/25 08:56:19;;;;;;;8.43;4.60;;;11.40;81.70;;;;;;6279726;22;20074;-77
2021/10/25 08:58:50;;;;;;;13.50;5.72;;;11.30;82.20;;;;;;6281240;22;20050;-77
2021/10/25 09:01:42;;;;;;;10.75;4.30;;;11.40;82.50;;;;;;6280750;22;20003;-77
2021/10/25 09:04:13;;;;;;;9.70;4.82;;;11.40;82.10;;;;;;6274253;22;20004;-76
2021/10/25 09:06:52;;;;;;;9.38;4.45;;;11.60;83.60;;;;;;6281115;22;20431;-77
2021/10/25 09:09:17;;;;;;;13.45;6.10;;;12.00;83.50;;;;;;6280926;22;20026;-77
2021/10/25 09:11:56;;;;;;;12.13;5.43;;;12.10;83.40;;;;;;6252741;22;19999;-77
2021/10/25 09:14:22;;;;;;;12.13;5.65;;;12.30;84.40;;;;;;6280772;22;19999;-77
2021/10/25 09:17:01;;;;;;;8.73;4.72;;;12.50;83.90;;;;;;6254258;22;20423;-77
2021/10/25 09:19:34;;;;;;;7.93;4.28;;;12.50;83.90;;;;;;6253871;22;20015;-78
2021/10/25 09:22:07;;;;;;;6.68;3.50;;;12.60;84.80;;;;;;6253855;22;20277;-77
2021/10/25 09:24:33;;;;;;;6.60;2.97;;;12.70;85.00;;;;;;6280838;22;20000;-77
2021/10/25 09:27:04;;;;;;;4.10;1.77;;;12.80;84.70;;;;;;6252547;22;20300;-78
2021/10/25 09:29:33;;;;;;;4.32;1.60;;;13.20;83.40;;;;;;6280485;22;20404;-78
2021/10/25 09:32:07;;;;;;;3.70;1.50;;;13.70;82.70;;;;;;6280979;22;20434;-77
2021/10/25 09:34:57;;;;;;;3.72;1.60;;;14.60;81.60;;;;;;6280798;22;20373;-78
2021/10/25 09:37:28;;;;;;;2.42;1.10;;;15.90;77.90;;;;;;6281208;22;20011;-77
2021/10/25 09:40:01;;;;;;;4.55;1.20;;;17.50;74.40;;;;;;6280721;22;20011;-78
2021/10/25 09:45:23;;;;;;;12.32;4.32;;;19.00;69.80;;;;;;6291310;22;20446;-78
2021/10/25 09:50:46;;;;;;;12.70;6.40;;;17.80;71.40;;;;;;6258243;22;20011;-78
2021/10/25 09:53:12;;;;;;;10.95;5.70;;;16.40;74.10;;;;;;6280589;22;20007;-77
2021/10/25 09:55:45;;;;;;;10.68;5.18;;;15.30;76.60;;;;;;6280114;22;20004;-77
2021/10/25 09:58:25;;;;;;;9.48;4.75;;;14.60;78.50;;;;;;6278717;22;20189;-78
2021/10/25 10:00:51;;;;;;;14.00;5.43;;;13.90;79.80;;;;;;6280209;22;20004;-78
2021/10/25 10:03:18;;;;;;;9.25;5.05;;;13.70;81.60;;;;;;6280469;22;20004;-78
2021/10/25 10:05:43;;;;;;;10.13;4.38;;;13.50;82.30;;;;;;6280597;22;20007;-77
2021/10/25 10:08:11;;;;;;;8.48;4.22;;;13.50;82.50;;;;;;6279909;22;20003;-77
2021/10/25 10:10:38;;;;;;;8.15;4.82;;;13.30;82.90;;;;;;6280490;22;20294;-77
2021/10/25 10:13:05;;;;;;;8.30;4.00;;;13.40;83.10;;;;;;6279115;22;20010;-79
2021/10/25 10:15:34;;;;;;;9.95;4.55;;;13.60;83.00;;;;;;6253519;22;20426;-77
2021/10/25 10:18:10;;;;;;;14.98;7.53;;;13.70;82.80;;;;;;6280194;22;20019;-78
2021/10/25 10:20:41;;;;;;;13.98;7.50;;;13.50;83.00;;;;;;6280153;22;20000;-78
2021/10/25 10:23:18;;;;;;;17.63;6.72;;;13.30;84.10;;;;;;6253426;22;20010;-78
2021/10/25 10:25:51;;;;;;;14.98;5.80;;;13.30;84.30;;;;;;6280294;22;20006;-78
2021/10/25 10:28:40;;;;;;;11.73;6.38;;;13.40;83.60;;;;;;6278675;22;20042;-78
2021/10/25 10:31:10;;;;;;;11.93;6.25;;;13.70;82.80;;;;;;6280095;22;20273;-77
2021/10/25 10:33:44;;;;;;;16.73;6.80;;;14.00;82.60;;;;;;6280071;22;20250;-76
2021/10/25 10:36:24;;;;;;;14.80;7.65;;;14.40;80.60;;;;;;6280270;22;20004;-76
2021/10/25 10:39:08;;;;;;;16.63;6.95;;;14.50;80.30;;;;;;6279775;22;20004;-76
2021/10/25 10:41:45;;;;;;;12.23;7.03;;;14.90;79.90;;;;;;6278509;22;20357;-77
2021/10/25 10:44:14;;;;;;;14.82;7.30;;;15.40;78.30;;;;;;6279961;22;19992;-78
2021/10/25 10:46:51;;;;;;;14.05;7.47;;;16.10;77.60;;;;;;6280312;22;20000;-79
2021/10/25 10:49:45;;;;;;;14.77;7.85;;;17.10;74.70;;;;;;6279951;22;20373;-78
2021/10/25 10:55:25;;;;;;;13.23;7.40;;;18.30;71.00;;;;;;6279575;22;20018;-79
2021/10/25 11:00:34;;;;;;;12.35;7.15;;;17.80;71.40;;;;;;6290671;22;20004;-78
2021/10/25 11:03:12;;;;;;;14.73;7.20;;;17.80;72.20;;;;;;6280412;22;20000;-78
2021/10/25 11:05:44;;;;;;;12.00;6.15;;;17.80;71.30;;;;;;6279875;22;20078;-78
2021/10/25 11:08:20;;;;;;;9.57;5.28;;;17.50;71.70;;;;;;6279902;22;19996;-78
2021/10/25 11:10:59;;;;;;;9.88;5.07;;;17.70;72.90;;;;;;6279849;22;20010;-78
2021/10/25 11:13:26;;;;;;;11.60;6.18;;;17.40;71.30;;;;;;6278748;22;20006;-78
2021/10/25 11:16:16;;;;;;;11.52;5.90;;;17.00;72.60;;;;;;6279933;22;20000;-78
2021/10/25 11:18:47;;;;;;;8.75;4.95;;;16.90;71.90;;;;;;6279498;22;20012;-78
2021/10/25 11:21:18;;;;;;;10.07;5.38;;;17.40;72.40;;;;;;6252962;22;20060;-79
2021/10/25 11:23:47;;;;;;;12.90;4.75;;;18.40;71.00;;;;;;6279845;22;20373;-78
2021/10/25 11:26:17;;;;;;;8.70;4.50;;;19.20;67.40;;;;;;6278348;22;20003;-79
2021/10/25 11:29:18;;;;;;;6.55;3.00;;;20.00;65.60;;;;;;6252744;22;20007;-78
2021/10/25 11:31:58;;;;;;;10.05;3.33;;;21.20;62.20;;;;;;6173926;22;20032;-79
2021/10/25 11:34:54;;;;;;;6.75;2.45;;;21.60;61.50;;;;;;6252817;22;20435;-79
2021/10/25 11:37:21;;;;;;;8.32;4.13;;;21.30;57.50;;;;;;6279480;22;20305;-78
2021/10/25 11:42:30;;;;;;;8.57;4.13;;;18.90;63.00;;;;;;6288759;22;20018;-78
2021/10/25 11:44:59;;;;;;;7.20;3.20;;;18.10;64.90;;;;;;6279719;22;19999;-78
2021/10/25 11:47:37;;;;;;;7.68;2.95;;;17.20;69.90;;;;;;6251774;22;20007;-78
2021/10/25 11:50:09;;;;;;;7.35;2.80;;;16.70;72.10;;;;;;6280622;22;20058;-78
2021/10/25 11:52:39;;;;;;;4.35;2.13;;;16.80;73.10;;;;;;6281816;22;20003;-78
2021/10/25 11:55:06;;;;;;;6.25;2.03;;;17.20;71.90;;;;;;6281770;22;20004;-78
2021/10/25 11:57:33;;;;;;;8.65;3.22;;;17.50;70.70;;;;;;6280392;22;20004;-78
2021/10/25 12:00:09;;;;;;;6.72;3.25;;;17.40;71.00;;;;;;6281322;22;20000;-78
2021/10/25 12:02:36;;;;;;;5.82;2.65;;;17.00;71.80;;;;;;6281307;22;20472;-78
2021/10/25 12:05:05;;;;;;;4.40;2.20;;;16.70;72.00;;;;;;6281589;22;20000;-78
2021/10/25 12:07:32;;;;;;;6.25;2.83;;;16.70;71.80;;;;;;6281577;22;20066;-78
2021/10/25 12:10:00;;;;;;;7.50;3.13;;;16.70;71.90;;;;;;6281377;22;20007;-79
2021/10/25 12:12:26;;;;;;;6.63;2.80;;;17.00;70.40;;;;;;6280200;22;20368;-78
2021/10/25 12:14:57;;;;;;;5.10;2.35;;;17.20;71.80;;;;;;6281347;22;20014;-79
2021/10/25 12:17:37;;;;;;;7.28;3.08;;;17.30;71.70;;;;;;6254304;22;20019;-79
2021/10/25 12:20:11;;;;;;;8.90;3.55;;;17.60;71.40;;;;;;6254518;22;20087;-78
2021/10/25 12:22:40;;;;;;;9.98;3.50;;;17.60;72.80;;;;;;6281456;22;20007;-78
2021/10/25 12:25:08;;;;;;;8.05;3.80;;;17.60;73.30;;;;;;6280935;22;20365;-78
2021/10/25 12:27:39;;;;;;;7.78;3.30;;;17.60;74.20;;;;;;6253129;22;20315;-79
2021/10/25 12:30:14;;;;;;;5.80;3.30;;;17.40;73.60;;;;;;6281648;22;20265;-79
2021/10/25 12:32:50;;;;;;;9.63;4.20;;;17.50;73.30;;;;;;6281274;22;20054;-78
2021/10/25 12:35:16;;;;;;;9.18;3.88;;;17.40;72.50;;;;;;6281206;22;20000;-78
2021/10/25 12:37:41;;;;;;;13.32;3.30;;;17.10;72.50;;;;;;6281367;22;20050;-78
2021/10/25 12:40:16;;;;;;;7.70;3.65;;;17.20;73.40;;;;;;6279489;22;20265;-79
2021/10/25 12:42:42;;;;;;;8.07;3.40;;;17.50;73.30;;;;;;6278712;22;20011;-78
2021/10/25 12:45:20;;;;;;;6.95;3.00;;;17.60;71.00;;;;;;6280240;22;20585;-78
2021/10/25 12:47:50;;;;;;;5.95;2.85;;;17.90;69.40;;;;;;6280387;22;20056;-79
2021/10/25 12:50:20;;;;;;;4.93;2.10;;;18.00;65.80;;;;;;6253082;22;20022;-77
2021/10/25 12:52:55;;;;;;;4.05;1.70;;;18.10;63.60;;;;;;6252115;22;20098;-76
2021/10/25 12:55:21;;;;;;;6.75;1.63;;;18.30;59.00;;;;;;6253082;22;20008;-76
2021/10/25 12:57:52;;;;;;;3.55;1.70;;;18.50;59.50;;;;;;6278296;22;20023;-76
2021/10/25 13:00:20;;;;;;;4.40;1.90;;;18.50;57.50;;;;;;6279768;22;20007;-77
2021/10/25 13:02:52;;;;;;;3.70;1.50;;;18.20;58.60;;;;;;6252338;22;20000;-77
2021/10/25 13:05:33;;;;;;;5.28;1.90;;;18.00;57.80;;;;;;6279933;22;20322;-77
2021/10/25 13:08:06;;;;;;;5.43;1.95;;;18.10;61.50;;;;;;6279665;22;20000;-76
2021/10/25 13:10:35;;;;;;;4.30;2.20;;;18.10;59.40;;;;;;6279405;22;20309;-76
2021/10/25 13:13:03;;;;;;;5.47;2.40;;;17.80;60.80;;;;;;6278225;22;20361;-77
2021/10/25 13:15:30;;;;;;;5.70;2.10;;;17.80;61.20;;;;;;6279247;22;20256;-77
2021/10/25 13:17:58;;;;;;;6.47;2.90;;;18.00;61.20;;;;;;6247499;23;20026;-76
2021/10/25 13:20:26;;;;;;;5.90;2.67;;;17.70;62.50;;;;;;6247416;23;20028;-76
2021/10/25 13:22:56;;;;;;;6.35;3.05;;;17.60;63.70;;;;;;6248579;22;20054;-76
2021/10/25 13:25:23;;;;;;;7.88;2.88;;;17.20;65.30;;;;;;6247209;23;20008;-76
2021/10/25 13:27:51;;;;;;;10.25;2.35;;;17.00;66.30;;;;;;6245857;23;20008;-77
2021/10/25 13:30:19;;;;;;;6.53;2.65;;;17.10;65.80;;;;;;6248879;22;20004;-76
2021/10/25 13:32:45;;;;;;;7.60;3.40;;;17.00;63.80;;;;;;6248580;22;20004;-76
2021/10/25 13:35:13;;;;;;;8.48;3.35;;;16.80;62.40;;;;;;6248503;23;20138;-77
2021/10/25 13:37:40;;;;;;;6.95;2.05;;;16.50;63.10;;;;;;6248339;22;20004;-77
2021/10/25 13:40:08;;;;;;;6.53;2.58;;;16.30;62.80;;;;;;6249022;22;20039;-76
2021/10/25 13:42:35;;;;;;;8.77;3.47;;;16.10;64.40;;;;;;6246891;22;20001;-76
2021/10/25 13:45:03;;;;;;;9.40;4.00;;;16.10;64.90;;;;;;6248433;22;19997;-77
2021/10/25 13:47:29;;;;;;;5.90;3.08;;;16.00;66.80;;;;;;6247778;23;20046;-77
2021/10/25 13:49:56;;;;;;;7.10;2.65;;;16.00;69.20;;;;;;6247953;23;20039;-76
2021/10/25 13:52:25;;;;;;;9.38;3.70;;;16.20;68.70;;;;;;6249666;23;20427;-76
2021/10/25 13:54:53;;;;;;;15.90;5.95;;;16.30;68.60;;;;;;6249669;22;20079;-76
2021/10/25 13:57:21;;;;;;;6.72;2.47;;;16.50;67.50;;;;;;6247801;22;20000;-76
2021/10/25 13:59:51;;;;;;;8.18;2.90;;;16.50;65.90;;;;;;6248560;22;20027;-76
2021/10/25 14:02:24;;;;;;;13.05;4.28;;;16.30;65.00;;;;;;6247445;22;20010;-76
2021/10/25 14:04:55;;;;;;;12.18;4.18;;;16.40;65.80;;;;;;6246565;22;20004;-78
2021/10/25 14:07:29;;;;;;;22.13;8.32;;;16.60;67.10;;;;;;6246896;23;20130;-76
2021/10/25 14:10:04;;;;;;;13.75;5.15;;;17.10;65.90;;;;;;6247100;22;20008;-77
2021/10/25 14:12:31;;;;;;;14.10;4.90;;;17.50;66.50;;;;;;6243088;23;20027;-76
2021/10/25 14:15:18;;;;;;;8.90;3.40;;;17.50;64.90;;;;;;6247442;23;20058;-76
2021/10/25 14:17:51;;;;;;;7.15;3.05;;;17.40;65.80;;;;;;6260658;22;20396;-76
2021/10/25 14:20:20;;;;;;;21.63;7.85;;;17.70;67.30;;;;;;6253232;22;20007;-75
2021/10/25 14:22:46;;;;;;;14.98;5.45;;;18.00;65.20;;;;;;6253214;22;20007;-75
2021/10/25 14:25:12;;;;;;;34.67;12.35;;;18.00;64.30;;;;;;6280197;22;20401;-75
2021/10/25 14:27:39;;;;;;;9.73;3.60;;;17.40;65.10;;;;;;6278756;22;20300;-76
2021/10/25 14:30:07;;;;;;;4.40;2.22;;;17.50;64.80;;;;;;6280287;22;20074;-76
2021/10/25 14:32:33;;;;;;;5.45;2.78;;;17.20;65.90;;;;;;6279983;22;20027;-78
2021/10/25 14:34:59;;;;;;;5.38;2.50;;;16.90;68.10;;;;;;6280201;22;20269;-75
2021/10/25 14:37:44;;;;;;;6.20;2.20;;;16.90;66.80;;;;;;6253127;22;20369;-75
2021/10/25 14:40:13;;;;;;;5.70;2.05;;;16.40;68.30;;;;;;6280376;22;20007;-75
2021/10/25 14:42:50;;;;;;;5.75;2.45;;;16.10;69.90;;;;;;6278716;22;20365;-75
2021/10/25 14:45:20;;;;;;;4.18;1.90;;;15.60;72.60;;;;;;6252790;22;20030;-76
2021/10/25 14:56:00;;;;;;;6.13;2.20;;;14.40;78.40;;;;;;6290517;22;19903;-75
2021/10/25 14:58:28;;;;;;;6.80;2.30;;;14.10;80.30;;;;;;6278304;22;20019;-76
2021/10/25 15:00:54;;;;;;;7.15;2.03;;;13.70;82.50;;;;;;6279870;22;20012;-76
2021/10/25 15:03:22;;;;;;;7.30;2.50;;;13.40;83.60;;;;;;6252504;22;20000;-74